createdAt,value
2023-02-16T00:00:15.129Z,102243.25
2023-02-16T00:03:23.620Z,102246.88
2023-02-16T00:06:27.831Z,102240.69
2023-02-16T00:09:30.635Z,102245.16
2023-02-16T00:12:50.872Z,102248.75
2023-02-16T00:15:53.725Z,102250.59
2023-02-16T00:18:57.924Z,102247.06
2023-02-16T00:22:01.824Z,102247.97
2023-02-16T00:25:04.837Z,102255.16
2023-02-16T00:28:14.432Z,102248.97
2023-02-16T00:31:21.455Z,102258.75
2023-02-16T00:34:35.264Z,102263.22
2023-02-16T00:37:38.203Z,102268.59
2023-02-16T00:40:43.046Z,102260.59
2023-02-16T00:43:46.722Z,102265.03
2023-02-16T00:46:49.720Z,102264.16
2023-02-16T00:49:55.551Z,102271.25
2023-02-16T00:52:59.290Z,102272.16
2023-02-16T00:56:02.178Z,102272.19
2023-02-16T00:59:08.540Z,102269.53
2023-02-16T01:02:13.902Z,102273.97
2023-02-16T01:05:18.162Z,102274.91
2023-02-16T01:08:38.656Z,102274.94
2023-02-16T01:11:41.622Z,102270.47
2023-02-16T01:14:47.099Z,102260.75
2023-02-16T01:17:50.001Z,102262.50
2023-02-16T01:20:54.530Z,102254.50
2023-02-16T01:23:57.380Z,102255.38
2023-02-16T01:27:00.339Z,102241.16
2023-02-16T01:30:03.234Z,102233.19
2023-02-16T01:33:06.103Z,102245.59
2023-02-16T01:36:22.973Z,102249.13
2023-02-16T01:39:25.882Z,102246.44
2023-02-16T01:42:36.987Z,102226.94
2023-02-16T01:45:42.833Z,102238.44
2023-02-16T01:48:45.695Z,102225.13
2023-02-16T01:51:56.806Z,102227.78
2023-02-16T01:55:06.271Z,102230.44
2023-02-16T01:58:19.912Z,102233.13
2023-02-16T02:01:40.462Z,102230.44
2023-02-16T02:05:05.347Z,102229.50
2023-02-16T02:08:17.613Z,102236.63
2023-02-16T02:11:25.786Z,102217.06
2023-02-16T02:14:37.923Z,102219.78
2023-02-16T02:17:41.117Z,102224.19
2023-02-16T02:21:16.089Z,102229.50
2023-02-16T02:24:53.439Z,102214.41
2023-02-16T02:28:04.522Z,102219.75
2023-02-16T02:31:12.921Z,102207.31
2023-02-16T02:34:26.022Z,102202.88
2023-02-16T02:37:41.110Z,102211.75
2023-02-16T02:40:55.816Z,102209.97
2023-02-16T02:44:09.511Z,102200.19
2023-02-16T02:47:12.370Z,102200.19
2023-02-16T02:50:39.935Z,102196.63
2023-02-16T02:53:49.191Z,102201.09
2023-02-16T02:57:16.524Z,102196.63
2023-02-16T03:00:44.265Z,102193.97
2023-02-16T03:03:50.702Z,102184.16
2023-02-16T03:06:57.137Z,102178.84
2023-02-16T03:10:20.231Z,102190.44
2023-02-16T03:13:25.239Z,102184.22
2023-02-16T03:16:35.163Z,102171.84
2023-02-16T03:19:57.532Z,102178.06
2023-02-16T03:23:19.948Z,102171.00
2023-02-16T03:26:41.611Z,102170.06
2023-02-16T03:29:47.082Z,102179.81
2023-02-16T03:32:52.048Z,102173.63
2023-02-16T03:35:55.395Z,102184.28
2023-02-16T03:38:59.536Z,102175.34
2023-02-16T03:42:03.065Z,102186.88
2023-02-16T03:45:06.440Z,102185.06
2023-02-16T03:48:10.809Z,102183.22
2023-02-16T03:51:13.620Z,102176.06
2023-02-16T03:54:16.485Z,102171.53
2023-02-16T03:57:19.404Z,102172.38
2023-02-16T04:00:22.834Z,102159.03
2023-02-16T04:03:27.712Z,102166.97
2023-02-16T04:06:30.508Z,102173.22
2023-02-16T04:09:33.318Z,102165.22
2023-02-16T04:12:39.107Z,102164.38
2023-02-16T04:15:42.336Z,102160.81
2023-02-16T04:18:46.741Z,102153.72
2023-02-16T04:21:49.550Z,102163.50
2023-02-16T04:24:52.344Z,102153.72
2023-02-16T04:27:55.816Z,102159.88
2023-02-16T04:30:58.661Z,102164.31
2023-02-16T04:34:02.971Z,102149.22
2023-02-16T04:37:05.844Z,102159.81
2023-02-16T04:40:11.029Z,102152.69
2023-02-16T04:43:13.837Z,102159.75
2023-02-16T04:46:16.757Z,102165.06
2023-02-16T04:49:20.943Z,102172.97
2023-02-16T04:52:23.793Z,102170.28
2023-02-16T04:55:26.579Z,102177.38
2023-02-16T04:58:29.590Z,102167.56
2023-02-16T05:01:32.492Z,102169.34
2023-02-16T05:04:36.739Z,102165.78
2023-02-16T05:07:39.627Z,102159.56
2023-02-16T05:10:43.762Z,102162.22
2023-02-16T05:14:04.349Z,102155.13
2023-02-16T05:17:07.596Z,102148.97
2023-02-16T05:20:13.101Z,102147.25
2023-02-16T05:23:16.258Z,102146.38
2023-02-16T05:26:19.142Z,102140.19
2023-02-16T05:29:22.092Z,102149.97
2023-02-16T05:32:25.176Z,102155.38
2023-02-16T05:35:29.479Z,102165.16
2023-02-16T05:38:32.352Z,102167.88
2023-02-16T05:41:35.283Z,102157.19
2023-02-16T05:44:38.693Z,102159.88
2023-02-16T05:47:41.525Z,102159.88
2023-02-16T05:50:45.729Z,102146.53
2023-02-16T05:53:48.982Z,102150.09
2023-02-16T05:56:53.763Z,102151.88
2023-02-16T05:59:56.816Z,102156.31
2023-02-16T06:02:59.745Z,102170.53
2023-02-16T06:06:05.116Z,102171.44
2023-02-16T06:09:09.256Z,102181.22
2023-02-16T06:12:12.102Z,102173.22
2023-02-16T06:15:14.948Z,102159.03
2023-02-16T06:18:18.268Z,102165.22
2023-02-16T06:21:22.954Z,102173.22
2023-02-16T06:24:25.938Z,102177.63
2023-02-16T06:27:29.406Z,102166.97
2023-02-16T06:30:33.029Z,102173.22
2023-02-16T06:33:36.070Z,102175.88
2023-02-16T06:36:42.639Z,102175.84
2023-02-16T06:39:46.107Z,102171.41
2023-02-16T06:42:48.998Z,102184.75
2023-02-16T06:45:51.939Z,102190.97
2023-02-16T06:48:55.455Z,102196.25
2023-02-16T06:51:59.840Z,102198.91
2023-02-16T06:55:02.777Z,102185.63
2023-02-16T06:58:06.064Z,102196.28
2023-02-16T07:01:09.537Z,102197.19
2023-02-16T07:04:12.416Z,102189.25
2023-02-16T07:07:16.625Z,102191.03
2023-02-16T07:10:20.019Z,102190.19
2023-02-16T07:13:22.939Z,102191.09
2023-02-16T07:16:25.858Z,102191.97
2023-02-16T07:19:32.325Z,102188.41
2023-02-16T07:22:36.520Z,102184.88
2023-02-16T07:25:39.376Z,102168.88
2023-02-16T07:28:42.261Z,102181.31
2023-02-16T07:31:45.154Z,102182.13
2023-02-16T07:34:48.180Z,102175.84
2023-02-16T07:37:52.420Z,102173.13
2023-02-16T07:40:55.213Z,102165.06
2023-02-16T07:43:58.056Z,102155.25
2023-02-16T07:47:01.141Z,102161.41
2023-02-16T07:50:04.003Z,102167.56
2023-02-16T07:53:09.133Z,102171.09
2023-02-16T07:56:20.731Z,102163.06
2023-02-16T07:59:23.637Z,102160.38
2023-02-16T08:02:27.367Z,102163.94
2023-02-16T08:05:30.705Z,102172.84
2023-02-16T08:08:34.996Z,102176.38
2023-02-16T08:11:37.791Z,102166.63
2023-02-16T08:14:41.357Z,102159.56
2023-02-16T08:17:44.467Z,102157.78
2023-02-16T08:21:03.184Z,102156.06
2023-02-16T08:24:09.539Z,102172.06
2023-02-16T08:27:12.585Z,102173.84
2023-02-16T08:30:18.357Z,102177.47
2023-02-16T08:33:21.374Z,102177.47
2023-02-16T08:36:26.408Z,102175.72
2023-02-16T08:39:32.850Z,102183.72
2023-02-16T08:42:35.788Z,102187.25
2023-02-16T08:45:38.646Z,102181.09
2023-02-16T08:48:41.499Z,102182.91
2023-02-16T08:51:46.409Z,102175.81
2023-02-16T08:54:50.846Z,102178.47
2023-02-16T08:57:53.715Z,102173.19
2023-02-16T09:00:57.225Z,102182.97
2023-02-16T09:04:00.106Z,102177.63
2023-02-16T09:07:03.016Z,102164.38
2023-02-16T09:10:08.564Z,102164.31
2023-02-16T09:13:14.205Z,102160.75
2023-02-16T09:16:19.119Z,102166.09
2023-02-16T09:19:22.884Z,102162.53
2023-02-16T09:22:25.726Z,102171.41
2023-02-16T09:25:29.898Z,102166.03
2023-02-16T09:28:32.878Z,102166.94
2023-02-16T09:31:39.598Z,102170.47
2023-02-16T09:34:44.599Z,102167.81
2023-02-16T09:37:47.417Z,102165.16
2023-02-16T09:40:51.726Z,102154.47
2023-02-16T09:43:59.772Z,102165.16
2023-02-16T09:47:05.857Z,102159.75
2023-02-16T09:50:27.695Z,102160.69
2023-02-16T09:53:45.324Z,102162.44
2023-02-16T09:56:57.538Z,102147.31
2023-02-16T10:00:08.656Z,102152.66
2023-02-16T10:03:23.754Z,102146.41
2023-02-16T10:06:44.023Z,102141.09
2023-02-16T10:09:51.423Z,102140.16
2023-02-16T10:12:59.518Z,102143.75
2023-02-16T10:16:07.008Z,102142.88
2023-02-16T10:19:20.636Z,102145.53
2023-02-16T10:22:32.055Z,102143.75
2023-02-16T10:25:42.148Z,102149.97
2023-02-16T10:28:49.393Z,102153.53
2023-02-16T10:32:03.620Z,102150.91
2023-02-16T10:35:15.214Z,102157.09
2023-02-16T10:38:24.045Z,102155.38
2023-02-16T10:41:33.955Z,102150.91
2023-02-16T10:44:42.854Z,102145.59
2023-02-16T10:47:47.186Z,102135.78
2023-02-16T10:50:58.702Z,102134.03
2023-02-16T10:54:05.568Z,102134.03
2023-02-16T10:57:21.130Z,102129.59
2023-02-16T11:00:38.779Z,102122.50
2023-02-16T11:03:47.731Z,102111.91
2023-02-16T11:07:04.996Z,102117.22
2023-02-16T11:10:22.288Z,102108.34
2023-02-16T11:13:29.444Z,102107.47
2023-02-16T11:16:35.583Z,102106.59
2023-02-16T11:19:40.044Z,102101.25
2023-02-16T11:22:42.975Z,102091.47
2023-02-16T11:25:55.378Z,102097.69
2023-02-16T11:29:14.596Z,102102.13
2023-02-16T11:32:21.461Z,102096.78
2023-02-16T11:35:24.400Z,102095.91
2023-02-16T11:38:30.616Z,102093.25
2023-02-16T11:41:36.713Z,102075.50
2023-02-16T11:44:44.530Z,102081.69
2023-02-16T11:47:54.727Z,102085.25
2023-02-16T11:51:00.207Z,102080.81
2023-02-16T11:54:09.671Z,102076.38
2023-02-16T11:57:15.692Z,102074.59
2023-02-16T12:00:21.963Z,102077.25
2023-02-16T12:03:44.634Z,102076.38
2023-02-16T12:07:00.570Z,102073.66
2023-02-16T12:10:09.756Z,102069.19
2023-02-16T12:13:23.036Z,102063.88
2023-02-16T12:16:35.238Z,102065.66
2023-02-16T12:19:42.814Z,102062.13
2023-02-16T12:22:49.256Z,102063.00
2023-02-16T12:26:05.821Z,102056.81
2023-02-16T12:29:20.670Z,102055.06
2023-02-16T12:32:44.544Z,102051.47
2023-02-16T12:36:01.969Z,102060.31
2023-02-16T12:39:17.914Z,102056.81
2023-02-16T12:42:42.943Z,102051.47
2023-02-16T12:45:47.492Z,102046.16
2023-02-16T12:48:55.961Z,102052.34
2023-02-16T12:52:07.173Z,102038.16
2023-02-16T12:55:22.049Z,102042.56
2023-02-16T12:58:29.913Z,102030.16
2023-02-16T13:01:36.718Z,102030.16
2023-02-16T13:04:43.708Z,102024.84
2023-02-16T13:07:51.861Z,102023.06
2023-02-16T13:11:01.429Z,102029.22
2023-02-16T13:14:12.075Z,102029.22
2023-02-16T13:17:19.630Z,102028.31
2023-02-16T13:20:24.668Z,102023.91
2023-02-16T13:23:42.655Z,102023.00
2023-02-16T13:27:01.525Z,102023.81
2023-02-16T13:30:37.126Z,102015.81
2023-02-16T13:34:06.338Z,102010.50
2023-02-16T13:37:35.553Z,102010.50
2023-02-16T13:41:11.723Z,102008.66
2023-02-16T13:44:17.862Z,102012.22
2023-02-16T13:47:26.857Z,102021.16
2023-02-16T13:50:32.820Z,102014.94
2023-02-16T13:53:39.415Z,102015.81
2023-02-16T13:56:43.632Z,102011.34
2023-02-16T13:59:55.942Z,102010.50
2023-02-16T14:03:02.112Z,102006.00
2023-02-16T14:06:32.272Z,102014.00
2023-02-16T14:09:50.835Z,102010.50
2023-02-16T14:12:55.152Z,102011.34
2023-02-16T14:16:02.492Z,102017.53
2023-02-16T14:19:18.773Z,102013.97
2023-02-16T14:22:25.171Z,102015.72
2023-02-16T14:25:39.542Z,102000.66
2023-02-16T14:29:10.175Z,102023.69
2023-02-16T14:32:24.394Z,102020.16
2023-02-16T14:35:31.006Z,102018.38
2023-02-16T14:38:36.877Z,102015.72
2023-02-16T14:41:41.586Z,102008.66
2023-02-16T14:45:02.863Z,102003.31
2023-02-16T14:48:19.298Z,102009.50
2023-02-16T14:51:52.459Z,102003.31
2023-02-16T14:55:24.110Z,101999.72
2023-02-16T14:58:32.740Z,102000.66
2023-02-16T15:01:42.629Z,102005.03
2023-02-16T15:04:46.191Z,102003.25
2023-02-16T15:07:52.368Z,101996.16
2023-02-16T15:10:55.363Z,101997.03
2023-02-16T15:14:04.779Z,101999.72
2023-02-16T15:17:10.113Z,101997.03
2023-02-16T15:20:23.200Z,102008.66
2023-02-16T15:23:28.239Z,102005.97
2023-02-16T15:26:33.182Z,102000.66
2023-02-16T15:29:36.352Z,102006.88
2023-02-16T15:32:41.185Z,101994.44
2023-02-16T15:35:46.739Z,101993.56
2023-02-16T15:38:57.219Z,102004.16
2023-02-16T15:42:19.839Z,102003.31
2023-02-16T15:45:28.425Z,101998.84
2023-02-16T15:48:34.593Z,101998.00
2023-02-16T15:51:38.379Z,101995.34
2023-02-16T15:54:42.275Z,101989.16
2023-02-16T15:57:45.527Z,101989.19
2023-02-16T16:00:48.803Z,101984.81
2023-02-16T16:03:53.847Z,101975.91
2023-02-16T16:06:57.436Z,101979.47
2023-02-16T16:10:01.372Z,101983.91
2023-02-16T16:13:06.618Z,101974.19
2023-02-16T16:16:10.095Z,101972.44
2023-02-16T16:19:19.426Z,101972.38
2023-02-16T16:22:42.899Z,101962.59
2023-02-16T16:25:48.226Z,101975.03
2023-02-16T16:28:51.592Z,101959.03
2023-02-16T16:31:55.007Z,101964.38
2023-02-16T16:35:01.071Z,101964.38
2023-02-16T16:38:05.199Z,101956.38
2023-02-16T16:41:18.158Z,101958.16
2023-02-16T16:44:34.500Z,101959.84
2023-02-16T16:47:40.020Z,101960.75
2023-02-16T16:50:44.458Z,101961.63
2023-02-16T16:53:55.402Z,101942.03
2023-02-16T16:56:58.363Z,101947.34
2023-02-16T17:00:01.266Z,101942.88
2023-02-16T17:03:05.886Z,101944.69
2023-02-16T17:06:10.412Z,101935.75
2023-02-16T17:09:15.809Z,101932.19
2023-02-16T17:12:19.531Z,101931.25
2023-02-16T17:15:30.574Z,101942.84
2023-02-16T17:18:33.717Z,101948.16
2023-02-16T17:21:37.942Z,101948.16
2023-02-16T17:24:40.877Z,101951.75
2023-02-16T17:27:43.767Z,101957.00
2023-02-16T17:30:47.026Z,101946.41
2023-02-16T17:33:49.871Z,101955.34
2023-02-16T17:36:54.101Z,101952.69
2023-02-16T17:39:56.911Z,101950.00
2023-02-16T17:42:59.854Z,101946.47
2023-02-16T17:46:06.369Z,101953.53
2023-02-16T17:49:11.931Z,101960.63
2023-02-16T17:52:16.193Z,101956.16
2023-02-16T17:55:19.126Z,101963.28
2023-02-16T17:58:23.506Z,101964.19
2023-02-16T18:01:26.568Z,101957.06
2023-02-16T18:04:29.775Z,101955.34
2023-02-16T18:07:34.038Z,101958.00
2023-02-16T18:10:39.957Z,101950.84
2023-02-16T18:13:42.891Z,101952.69
2023-02-16T18:16:45.792Z,101950.00
2023-02-16T18:19:48.715Z,101947.34
2023-02-16T18:22:53.030Z,101942.84
2023-02-16T18:25:55.944Z,101941.03
2023-02-16T18:28:58.895Z,101941.00
2023-02-16T18:32:03.107Z,101940.06
2023-02-16T18:35:06.663Z,101936.53
2023-02-16T18:38:10.892Z,101936.53
2023-02-16T18:41:13.901Z,101937.38
2023-02-16T18:44:17.044Z,101941.81
2023-02-16T18:47:19.991Z,101949.81
2023-02-16T18:50:22.848Z,101949.81
2023-02-16T18:53:27.134Z,101940.88
2023-02-16T18:56:29.970Z,101948.03
2023-02-16T18:59:32.879Z,101940.06
2023-02-16T19:02:36.746Z,101934.72
2023-02-16T19:05:39.728Z,101933.00
2023-02-16T19:08:44.033Z,101939.22
2023-02-16T19:11:47.004Z,101933.88
2023-02-16T19:14:49.839Z,101933.00
2023-02-16T19:17:53.104Z,101933.00
2023-02-16T19:20:56.329Z,101931.22
2023-02-16T19:24:00.918Z,101928.56
2023-02-16T19:27:04.088Z,101928.56
2023-02-16T19:30:08.613Z,101932.13
2023-02-16T19:33:11.504Z,101929.41
2023-02-16T19:36:15.782Z,101928.50
2023-02-16T19:39:20.039Z,101930.22
2023-02-16T19:42:22.933Z,101927.59
2023-02-16T19:45:25.869Z,101924.03
2023-02-16T19:48:29.215Z,101926.66
2023-02-16T19:51:32.175Z,101912.44
2023-02-16T19:54:37.128Z,101931.97
2023-02-16T19:57:39.978Z,101931.03
2023-02-16T20:00:42.921Z,101934.59
2023-02-16T20:03:46.524Z,101936.34
2023-02-16T20:06:49.742Z,101935.47
2023-02-16T20:09:54.080Z,101936.34
2023-02-16T20:12:57.105Z,101933.69
2023-02-16T20:16:02.382Z,101931.03
2023-02-16T20:19:05.380Z,101918.66
2023-02-16T20:22:08.501Z,101915.97
2023-02-16T20:25:12.870Z,101914.22
2023-02-16T20:28:15.779Z,101913.38
2023-02-16T20:31:21.120Z,101925.81
2023-02-16T20:34:26.088Z,101924.06
2023-02-16T20:37:30.218Z,101910.72
2023-02-16T20:40:34.451Z,101903.69
2023-02-16T20:43:38.144Z,101902.75
2023-02-16T20:46:41.847Z,101909.00
2023-02-16T20:49:44.825Z,101907.25
2023-02-16T20:52:48.159Z,101914.38
2023-02-16T20:56:00.614Z,101906.38
2023-02-16T20:59:04.583Z,101904.66
2023-02-16T21:02:08.012Z,101908.22
2023-02-16T21:05:11.436Z,101902.03
2023-02-16T21:08:14.566Z,101901.09
2023-02-16T21:11:19.394Z,101907.38
2023-02-16T21:14:22.368Z,101899.31
2023-02-16T21:17:25.333Z,101898.44
2023-02-16T21:20:28.166Z,101890.44
2023-02-16T21:23:31.231Z,101898.44
2023-02-16T21:26:35.606Z,101879.72
2023-02-16T21:29:39.304Z,101880.66
2023-02-16T21:32:42.226Z,101878.88
2023-02-16T21:35:45.218Z,101870.88
2023-02-16T21:38:48.812Z,101866.47
2023-02-16T21:41:52.065Z,101855.72
2023-02-16T21:45:12.390Z,101853.94
2023-02-16T21:48:33.167Z,101855.69
2023-02-16T21:51:38.321Z,101834.38
2023-02-16T21:54:58.843Z,101834.38
2023-02-16T21:58:03.432Z,101836.09
2023-02-16T22:01:06.462Z,101835.19
2023-02-16T22:04:12.127Z,101837.88
2023-02-16T22:07:15.166Z,101832.47
2023-02-16T22:10:18.121Z,101825.34
2023-02-16T22:13:22.578Z,101832.47
2023-02-16T22:16:26.372Z,101823.59
2023-02-16T22:19:29.184Z,101820.03
2023-02-16T22:22:32.020Z,101830.69
2023-02-16T22:25:34.821Z,101826.22
2023-02-16T22:28:39.097Z,101819.09
2023-02-16T22:31:45.527Z,101819.06
2023-02-16T22:34:48.446Z,101815.50
2023-02-16T22:37:51.255Z,101816.41
2023-02-16T22:40:54.119Z,101807.59
2023-02-16T22:44:00.057Z,101820.09
2023-02-16T22:47:02.909Z,101821.88
2023-02-16T22:50:07.163Z,101820.13
2023-02-16T22:53:09.969Z,101818.41
2023-02-16T22:56:15.359Z,101821.97
2023-02-16T22:59:19.654Z,101821.09
2023-02-16T23:02:22.464Z,101813.97
2023-02-16T23:05:25.356Z,101815.81
2023-02-16T23:08:28.220Z,101807.81
2023-02-16T23:11:31.580Z,101807.88
2023-02-16T23:14:39.111Z,101803.44
2023-02-16T23:17:41.968Z,101797.28
2023-02-16T23:20:44.782Z,101803.47
2023-02-16T23:23:49.191Z,101802.63
2023-02-16T23:26:52.719Z,101802.63
2023-02-16T23:29:57.071Z,101801.72
2023-02-16T23:32:59.919Z,101801.72
2023-02-16T23:36:03.204Z,101805.28
2023-02-16T23:39:08.366Z,101802.63
2023-02-16T23:42:11.262Z,101802.63
2023-02-16T23:45:15.898Z,101802.63
2023-02-16T23:48:18.735Z,101800.78
2023-02-16T23:51:21.570Z,101797.28
2023-02-16T23:54:24.323Z,101802.63
2023-02-16T23:57:27.126Z,101789.28
